sensor_id;sensor_type;location;lat;lon;timestamp;P1;durP1;ratioP1;P2;durP2;ratioP2
75280;SDS011;63874;47.230;39.620;2023-07-20T00:02:00;1.40;;;0.65;;
75280;SDS011;63874;47.230;39.620;2023-07-20T00:04:27;1.42;;;0.30;;
75280;SDS011;63874;47.230;39.620;2023-07-20T00:06:53;1.92;;;0.20;;
75280;SDS011;63874;47.230;39.620;2023-07-20T00:09:19;1.50;;;0.55;;
75280;SDS011;63874;47.230;39.620;2023-07-20T00:11:50;1.42;;;0.75;;
75280;SDS011;63874;47.230;39.620;2023-07-20T00:14:17;1.05;;;0.65;;
75280;SDS011;63874;47.230;39.620;2023-07-20T00:16:43;1.65;;;0.73;;
75280;SDS011;63874;47.230;39.620;2023-07-20T00:19:12;0.80;;;0.10;;
75280;SDS011;63874;47.230;39.620;2023-07-20T00:21:38;1.40;;;0.70;;
75280;SDS011;63874;47.230;39.620;2023-07-20T00:24:06;1.63;;;1.00;;
75280;SDS011;63874;47.230;39.620;2023-07-20T00:26:32;0.80;;;0.35;;
75280;SDS011;63874;47.230;39.620;2023-07-20T00:28:57;1.15;;;0.32;;
75280;SDS011;63874;47.230;39.620;2023-07-20T00:31:23;0.73;;;0.20;;
75280;SDS011;63874;47.230;39.620;2023-07-20T00:33:49;1.17;;;0.75;;
75280;SDS011;63874;47.230;39.620;2023-07-20T00:36:15;2.03;;;0.70;;
75280;SDS011;63874;47.230;39.620;2023-07-20T00:38:42;1.48;;;0.80;;
75280;SDS011;63874;47.230;39.620;2023-07-20T00:41:08;1.70;;;0.73;;
75280;SDS011;63874;47.230;39.620;2023-07-20T00:43:34;0.82;;;0.15;;
75280;SDS011;63874;47.230;39.620;2023-07-20T00:46:00;1.73;;;1.05;;
75280;SDS011;63874;47.230;39.620;2023-07-20T00:48:28;2.63;;;0.73;;
75280;SDS011;63874;47.230;39.620;2023-07-20T00:50:55;0.93;;;0.22;;
75280;SDS011;63874;47.230;39.620;2023-07-20T00:53:22;1.08;;;0.90;;
75280;SDS011;63874;47.230;39.620;2023-07-20T00:55:48;1.20;;;0.70;;
75280;SDS011;63874;47.230;39.620;2023-07-20T00:58:14;1.48;;;0.20;;
75280;SDS011;63874;47.230;39.620;2023-07-20T01:00:40;1.15;;;0.88;;
75280;SDS011;63874;47.230;39.620;2023-07-20T01:03:06;0.30;;;0.10;;
75280;SDS011;63874;47.230;39.620;2023-07-20T01:05:35;1.67;;;0.95;;
75280;SDS011;63874;47.230;39.620;2023-07-20T01:08:24;1.60;;;0.43;;
75280;SDS011;63874;47.230;39.620;2023-07-20T01:11:13;0.90;;;0.20;;
75280;SDS011;63874;47.230;39.620;2023-07-20T01:13:47;1.45;;;0.85;;
75280;SDS011;63874;47.230;39.620;2023-07-20T01:16:13;2.58;;;0.50;;
75280;SDS011;63874;47.230;39.620;2023-07-20T01:18:39;1.60;;;0.65;;
75280;SDS011;63874;47.230;39.620;2023-07-20T01:21:09;1.45;;;0.93;;
75280;SDS011;63874;47.230;39.620;2023-07-20T01:26:38;0.50;;;0.20;;
75280;SDS011;63874;47.230;39.620;2023-07-20T01:32:29;1.35;;;0.95;;
75280;SDS011;63874;47.230;39.620;2023-07-20T01:34:56;2.03;;;1.00;;
75280;SDS011;63874;47.230;39.620;2023-07-20T01:37:24;2.80;;;1.30;;
75280;SDS011;63874;47.230;39.620;2023-07-20T01:39:54;0.80;;;0.20;;
75280;SDS011;63874;47.230;39.620;2023-07-20T01:42:24;1.52;;;0.75;;
75280;SDS011;63874;47.230;39.620;2023-07-20T01:44:50;2.03;;;0.93;;
75280;SDS011;63874;47.230;39.620;2023-07-20T01:47:20;1.40;;;0.43;;
75280;SDS011;63874;47.230;39.620;2023-07-20T01:49:46;1.60;;;0.45;;
75280;SDS011;63874;47.230;39.620;2023-07-20T01:52:12;1.25;;;0.20;;
75280;SDS011;63874;47.230;39.620;2023-07-20T01:54:37;1.27;;;0.32;;
75280;SDS011;63874;47.230;39.620;2023-07-20T01:57:03;0.90;;;0.60;;
75280;SDS011;63874;47.230;39.620;2023-07-20T01:59:29;1.42;;;1.02;;
75280;SDS011;63874;47.230;39.620;2023-07-20T02:01:55;1.25;;;0.30;;
75280;SDS011;63874;47.230;39.620;2023-07-20T02:04:21;1.25;;;0.30;;
75280;SDS011;63874;47.230;39.620;2023-07-20T02:06:47;1.02;;;0.17;;
75280;SDS011;63874;47.230;39.620;2023-07-20T02:09:13;1.38;;;0.70;;
75280;SDS011;63874;47.230;39.620;2023-07-20T02:11:39;2.15;;;1.17;;
75280;SDS011;63874;47.230;39.620;2023-07-20T02:14:05;2.20;;;0.93;;
75280;SDS011;63874;47.230;39.620;2023-07-20T02:16:31;0.95;;;0.60;;
75280;SDS011;63874;47.230;39.620;2023-07-20T02:18:57;1.20;;;0.55;;
75280;SDS011;63874;47.230;39.620;2023-07-20T02:21:23;0.65;;;0.20;;
75280;SDS011;63874;47.230;39.620;2023-07-20T02:23:49;0.88;;;0.20;;
75280;SDS011;63874;47.230;39.620;2023-07-20T02:26:15;0.73;;;0.25;;
75280;SDS011;63874;47.230;39.620;2023-07-20T02:28:41;2.35;;;1.27;;
75280;SDS011;63874;47.230;39.620;2023-07-20T02:31:07;0.68;;;0.32;;
75280;SDS011;63874;47.230;39.620;2023-07-20T02:33:33;0.85;;;0.30;;
75280;SDS011;63874;47.230;39.620;2023-07-20T02:35:59;1.92;;;0.20;;
75280;SDS011;63874;47.230;39.620;2023-07-20T02:38:24;0.98;;;0.32;;
75280;SDS011;63874;47.230;39.620;2023-07-20T02:40:50;0.90;;;0.13;;
75280;SDS011;63874;47.230;39.620;2023-07-20T02:43:16;1.48;;;0.73;;
75280;SDS011;63874;47.230;39.620;2023-07-20T02:45:44;0.93;;;0.38;;
75280;SDS011;63874;47.230;39.620;2023-07-20T02:48:10;1.42;;;0.10;;
75280;SDS011;63874;47.230;39.620;2023-07-20T02:50:36;1.42;;;0.70;;
75280;SDS011;63874;47.230;39.620;2023-07-20T02:53:02;1.25;;;0.32;;
75280;SDS011;63874;47.230;39.620;2023-07-20T02:55:28;1.45;;;0.35;;
75280;SDS011;63874;47.230;39.620;2023-07-20T02:57:54;0.82;;;0.20;;
75280;SDS011;63874;47.230;39.620;2023-07-20T03:00:19;1.08;;;0.32;;
75280;SDS011;63874;47.230;39.620;2023-07-20T03:02:48;0.85;;;0.47;;
75280;SDS011;63874;47.230;39.620;2023-07-20T03:05:18;1.67;;;0.93;;
75280;SDS011;63874;47.230;39.620;2023-07-20T03:07:44;1.10;;;0.10;;
75280;SDS011;63874;47.230;39.620;2023-07-20T03:10:09;1.02;;;0.40;;
75280;SDS011;63874;47.230;39.620;2023-07-20T03:12:36;1.25;;;0.35;;
75280;SDS011;63874;47.230;39.620;2023-07-20T03:15:02;1.25;;;0.68;;
75280;SDS011;63874;47.230;39.620;2023-07-20T03:17:28;0.93;;;0.20;;
75280;SDS011;63874;47.230;39.620;2023-07-20T03:19:55;2.45;;;0.80;;
75280;SDS011;63874;47.230;39.620;2023-07-20T03:22:22;2.47;;;0.30;;
75280;SDS011;63874;47.230;39.620;2023-07-20T03:24:49;2.25;;;0.73;;
75280;SDS011;63874;47.230;39.620;2023-07-20T03:27:16;1.15;;;0.63;;
75280;SDS011;63874;47.230;39.620;2023-07-20T03:29:42;1.55;;;0.30;;
75280;SDS011;63874;47.230;39.620;2023-07-20T03:32:10;0.60;;;0.20;;
75280;SDS011;63874;47.230;39.620;2023-07-20T03:34:36;1.13;;;0.47;;
75280;SDS011;63874;47.230;39.620;2023-07-20T03:37:02;1.73;;;0.98;;
75280;SDS011;63874;47.230;39.620;2023-07-20T03:39:30;1.35;;;0.20;;
75280;SDS011;63874;47.230;39.620;2023-07-20T03:41:57;1.52;;;0.65;;
75280;SDS011;63874;47.230;39.620;2023-07-20T03:44:24;0.73;;;0.20;;
75280;SDS011;63874;47.230;39.620;2023-07-20T03:46:50;0.88;;;0.30;;
75280;SDS011;63874;47.230;39.620;2023-07-20T03:49:16;1.20;;;0.40;;
75280;SDS011;63874;47.230;39.620;2023-07-20T03:51:43;1.25;;;0.65;;
75280;SDS011;63874;47.230;39.620;2023-07-20T03:54:09;1.60;;;0.95;;
75280;SDS011;63874;47.230;39.620;2023-07-20T03:56:35;0.93;;;0.25;;
75280;SDS011;63874;47.230;39.620;2023-07-20T03:59:01;1.23;;;0.70;;
75280;SDS011;63874;47.230;39.620;2023-07-20T04:01:27;0.85;;;0.13;;
75280;SDS011;63874;47.230;39.620;2023-07-20T04:03:53;1.63;;;0.20;;
75280;SDS011;63874;47.230;39.620;2023-07-20T04:06:19;0.50;;;0.10;;
75280;SDS011;63874;47.230;39.620;2023-07-20T04:08:45;1.00;;;0.80;;
75280;SDS011;63874;47.230;39.620;2023-07-20T04:11:12;1.50;;;0.65;;
75280;SDS011;63874;47.230;39.620;2023-07-20T04:13:39;0.95;;;0.20;;
75280;SDS011;63874;47.230;39.620;2023-07-20T04:16:04;1.48;;;0.10;;
75280;SDS011;63874;47.230;39.620;2023-07-20T04:18:30;0.70;;;0.20;;
75280;SDS011;63874;47.230;39.620;2023-07-20T04:20:56;1.08;;;0.30;;
75280;SDS011;63874;47.230;39.620;2023-07-20T04:23:22;0.60;;;0.20;;
75280;SDS011;63874;47.230;39.620;2023-07-20T04:25:49;2.40;;;0.65;;
75280;SDS011;63874;47.230;39.620;2023-07-20T04:28:15;2.20;;;0.60;;
75280;SDS011;63874;47.230;39.620;2023-07-20T04:30:48;1.38;;;0.20;;
75280;SDS011;63874;47.230;39.620;2023-07-20T04:33:15;0.55;;;0.10;;
75280;SDS011;63874;47.230;39.620;2023-07-20T04:35:50;1.30;;;0.20;;
75280;SDS011;63874;47.230;39.620;2023-07-20T04:38:21;2.00;;;0.95;;
75280;SDS011;63874;47.230;39.620;2023-07-20T04:40:53;0.73;;;0.10;;
75280;SDS011;63874;47.230;39.620;2023-07-20T04:43:19;2.33;;;0.20;;
75280;SDS011;63874;47.230;39.620;2023-07-20T04:45:45;1.25;;;0.65;;
75280;SDS011;63874;47.230;39.620;2023-07-20T04:48:12;1.33;;;0.75;;
75280;SDS011;63874;47.230;39.620;2023-07-20T04:50:47;1.83;;;0.70;;
75280;SDS011;63874;47.230;39.620;2023-07-20T04:53:13;0.82;;;0.15;;
75280;SDS011;63874;47.230;39.620;2023-07-20T04:55:40;2.33;;;0.10;;
75280;SDS011;63874;47.230;39.620;2023-07-20T04:58:07;1.02;;;0.28;;
75280;SDS011;63874;47.230;39.620;2023-07-20T05:00:37;0.98;;;0.15;;
75280;SDS011;63874;47.230;39.620;2023-07-20T05:03:04;1.48;;;0.10;;
75280;SDS011;63874;47.230;39.620;2023-07-20T05:05:30;1.20;;;0.20;;
75280;SDS011;63874;47.230;39.620;2023-07-20T05:07:57;0.77;;;0.10;;
75280;SDS011;63874;47.230;39.620;2023-07-20T05:10:23;1.58;;;0.30;;
75280;SDS011;63874;47.230;39.620;2023-07-20T05:12:49;1.00;;;0.60;;
75280;SDS011;63874;47.230;39.620;2023-07-20T05:15:15;2.55;;;0.10;;
75280;SDS011;63874;47.230;39.620;2023-07-20T05:17:41;2.35;;;0.75;;
75280;SDS011;63874;47.230;39.620;2023-07-20T05:20:07;0.70;;;0.13;;
75280;SDS011;63874;47.230;39.620;2023-07-20T05:22:36;0.63;;;0.30;;
75280;SDS011;63874;47.230;39.620;2023-07-20T05:25:06;1.58;;;0.40;;
75280;SDS011;63874;47.230;39.620;2023-07-20T05:27:33;1.30;;;0.10;;
75280;SDS011;63874;47.230;39.620;2023-07-20T05:30:00;0.40;;;0.13;;
75280;SDS011;63874;47.230;39.620;2023-07-20T05:32:25;1.13;;;0.25;;
75280;SDS011;63874;47.230;39.620;2023-07-20T05:34:52;0.43;;;0.10;;
75280;SDS011;63874;47.230;39.620;2023-07-20T05:37:19;0.60;;;0.15;;
75280;SDS011;63874;47.230;39.620;2023-07-20T05:39:45;0.30;;;0.10;;
75280;SDS011;63874;47.230;39.620;2023-07-20T05:42:11;1.45;;;0.63;;
75280;SDS011;63874;47.230;39.620;2023-07-20T05:44:37;1.67;;;0.93;;
75280;SDS011;63874;47.230;39.620;2023-07-20T05:47:03;1.75;;;0.52;;
75280;SDS011;63874;47.230;39.620;2023-07-20T05:49:29;1.65;;;0.20;;
75280;SDS011;63874;47.230;39.620;2023-07-20T05:51:55;0.73;;;0.10;;
75280;SDS011;63874;47.230;39.620;2023-07-20T05:54:23;1.77;;;0.52;;
75280;SDS011;63874;47.230;39.620;2023-07-20T05:56:50;1.67;;;0.17;;
75280;SDS011;63874;47.230;39.620;2023-07-20T05:59:16;1.90;;;0.70;;
75280;SDS011;63874;47.230;39.620;2023-07-20T06:01:44;0.40;;;0.10;;
75280;SDS011;63874;47.230;39.620;2023-07-20T06:04:10;0.57;;;0.10;;
75280;SDS011;63874;47.230;39.620;2023-07-20T06:06:36;0.95;;;0.50;;
75280;SDS011;63874;47.230;39.620;2023-07-20T06:09:02;0.73;;;0.52;;
75280;SDS011;63874;47.230;39.620;2023-07-20T06:11:32;1.55;;;0.28;;
75280;SDS011;63874;47.230;39.620;2023-07-20T06:13:58;0.30;;;0.10;;
75280;SDS011;63874;47.230;39.620;2023-07-20T06:16:25;1.20;;;0.50;;
75280;SDS011;63874;47.230;39.620;2023-07-20T06:18:50;1.55;;;0.32;;
75280;SDS011;63874;47.230;39.620;2023-07-20T06:21:16;2.60;;;1.05;;
75280;SDS011;63874;47.230;39.620;2023-07-20T06:23:42;0.60;;;0.20;;
75280;SDS011;63874;47.230;39.620;2023-07-20T06:26:08;0.30;;;0.10;;
75280;SDS011;63874;47.230;39.620;2023-07-20T06:28:33;0.85;;;0.10;;
75280;SDS011;63874;47.230;39.620;2023-07-20T06:31:00;0.70;;;0.20;;
75280;SDS011;63874;47.230;39.620;2023-07-20T06:33:26;0.60;;;0.00;;
75280;SDS011;63874;47.230;39.620;2023-07-20T06:35:52;0.88;;;0.10;;
75280;SDS011;63874;47.230;39.620;2023-07-20T06:38:18;0.95;;;0.10;;
75280;SDS011;63874;47.230;39.620;2023-07-20T06:40:47;0.95;;;0.10;;
75280;SDS011;63874;47.230;39.620;2023-07-20T06:43:13;0.32;;;0.10;;
75280;SDS011;63874;47.230;39.620;2023-07-20T06:45:39;0.68;;;0.35;;
75280;SDS011;63874;47.230;39.620;2023-07-20T06:48:04;0.90;;;0.50;;
75280;SDS011;63874;47.230;39.620;2023-07-20T06:50:31;0.65;;;0.10;;
75280;SDS011;63874;47.230;39.620;2023-07-20T06:52:57;0.68;;;0.40;;
75280;SDS011;63874;47.230;39.620;2023-07-20T06:55:23;0.20;;;0.00;;
75280;SDS011;63874;47.230;39.620;2023-07-20T06:57:49;0.47;;;0.22;;
75280;SDS011;63874;47.230;39.620;2023-07-20T07:00:16;0.50;;;0.20;;
75280;SDS011;63874;47.230;39.620;2023-07-20T07:02:42;1.05;;;0.50;;
75280;SDS011;63874;47.230;39.620;2023-07-20T07:05:08;0.80;;;0.10;;
75280;SDS011;63874;47.230;39.620;2023-07-20T07:07:34;0.80;;;0.10;;
75280;SDS011;63874;47.230;39.620;2023-07-20T07:10:00;0.95;;;0.60;;
75280;SDS011;63874;47.230;39.620;2023-07-20T07:12:28;0.30;;;0.05;;
75280;SDS011;63874;47.230;39.620;2023-07-20T07:14:54;1.05;;;0.00;;
75280;SDS011;63874;47.230;39.620;2023-07-20T07:17:20;0.25;;;0.10;;
75280;SDS011;63874;47.230;39.620;2023-07-20T07:19:46;0.65;;;0.38;;
75280;SDS011;63874;47.230;39.620;2023-07-20T07:22:12;1.10;;;0.63;;
75280;SDS011;63874;47.230;39.620;2023-07-20T07:24:39;1.23;;;0.52;;
75280;SDS011;63874;47.230;39.620;2023-07-20T07:27:08;1.13;;;0.65;;
75280;SDS011;63874;47.230;39.620;2023-07-20T07:29:34;1.60;;;0.45;;
75280;SDS011;63874;47.230;39.620;2023-07-20T07:32:00;1.20;;;0.25;;
75280;SDS011;63874;47.230;39.620;2023-07-20T07:34:27;0.70;;;0.10;;
75280;SDS011;63874;47.230;39.620;2023-07-20T07:36:53;0.73;;;0.10;;
75280;SDS011;63874;47.230;39.620;2023-07-20T07:39:19;0.43;;;0.10;;
75280;SDS011;63874;47.230;39.620;2023-07-20T07:41:45;1.77;;;0.57;;
75280;SDS011;63874;47.230;39.620;2023-07-20T07:44:10;1.58;;;0.10;;
75280;SDS011;63874;47.230;39.620;2023-07-20T07:46:36;1.48;;;0.10;;
75280;SDS011;63874;47.230;39.620;2023-07-20T07:49:02;1.00;;;0.60;;
75280;SDS011;63874;47.230;39.620;2023-07-20T07:51:29;0.63;;;0.20;;
75280;SDS011;63874;47.230;39.620;2023-07-20T07:53:55;1.10;;;0.13;;
75280;SDS011;63874;47.230;39.620;2023-07-20T07:56:20;0.77;;;0.10;;
75280;SDS011;63874;47.230;39.620;2023-07-20T07:58:49;1.40;;;0.10;;
75280;SDS011;63874;47.230;39.620;2023-07-20T08:01:17;1.23;;;0.10;;
75280;SDS011;63874;47.230;39.620;2023-07-20T08:03:44;1.70;;;0.10;;
75280;SDS011;63874;47.230;39.620;2023-07-20T08:06:13;0.40;;;0.10;;
75280;SDS011;63874;47.230;39.620;2023-07-20T08:08:39;0.88;;;0.00;;
75280;SDS011;63874;47.230;39.620;2023-07-20T08:11:05;0.40;;;0.10;;
75280;SDS011;63874;47.230;39.620;2023-07-20T08:13:31;0.65;;;0.00;;
75280;SDS011;63874;47.230;39.620;2023-07-20T08:15:57;1.05;;;0.60;;
75280;SDS011;63874;47.230;39.620;2023-07-20T08:18:23;0.52;;;0.22;;
75280;SDS011;63874;47.230;39.620;2023-07-20T08:20:49;1.35;;;0.40;;
75280;SDS011;63874;47.230;39.620;2023-07-20T08:23:15;0.40;;;0.10;;
75280;SDS011;63874;47.230;39.620;2023-07-20T08:25:41;0.82;;;0.10;;
75280;SDS011;63874;47.230;39.620;2023-07-20T08:28:19;0.20;;;0.05;;
75280;SDS011;63874;47.230;39.620;2023-07-20T08:30:45;1.15;;;0.52;;
75280;SDS011;63874;47.230;39.620;2023-07-20T08:33:17;0.98;;;0.40;;
75280;SDS011;63874;47.230;39.620;2023-07-20T08:35:45;0.80;;;0.35;;
75280;SDS011;63874;47.230;39.620;2023-07-20T08:38:11;1.45;;;0.77;;
75280;SDS011;63874;47.230;39.620;2023-07-20T08:40:43;0.50;;;0.10;;
75280;SDS011;63874;47.230;39.620;2023-07-20T08:43:13;0.32;;;0.10;;
75280;SDS011;63874;47.230;39.620;2023-07-20T08:45:42;1.65;;;0.20;;
75280;SDS011;63874;47.230;39.620;2023-07-20T08:48:10;0.30;;;0.10;;
75280;SDS011;63874;47.230;39.620;2023-07-20T08:50:37;0.40;;;0.10;;
75280;SDS011;63874;47.230;39.620;2023-07-20T08:53:03;1.23;;;0.08;;
75280;SDS011;63874;47.230;39.620;2023-07-20T08:55:29;0.57;;;0.10;;
75280;SDS011;63874;47.230;39.620;2023-07-20T08:58:00;0.73;;;0.10;;
75280;SDS011;63874;47.230;39.620;2023-07-20T09:00:27;0.22;;;0.10;;
75280;SDS011;63874;47.230;39.620;2023-07-20T09:02:54;0.55;;;0.10;;
75280;SDS011;63874;47.230;39.620;2023-07-20T09:05:23;0.30;;;0.10;;
75280;SDS011;63874;47.230;39.620;2023-07-20T09:07:51;0.90;;;0.60;;
75280;SDS011;63874;47.230;39.620;2023-07-20T09:10:20;0.35;;;0.10;;
75280;SDS011;63874;47.230;39.620;2023-07-20T09:12:46;0.10;;;0.00;;
75280;SDS011;63874;47.230;39.620;2023-07-20T09:15:12;0.70;;;0.40;;
75280;SDS011;63874;47.230;39.620;2023-07-20T09:17:38;0.50;;;0.30;;
75280;SDS011;63874;47.230;39.620;2023-07-20T09:20:04;1.27;;;0.00;;
75280;SDS011;63874;47.230;39.620;2023-07-20T09:22:33;0.40;;;0.00;;
75280;SDS011;63874;47.230;39.620;2023-07-20T13:26:04;0.80;;;0.40;;
75280;SDS011;63874;47.230;39.620;2023-07-20T13:28:30;2.10;;;0.50;;
75280;SDS011;63874;47.230;39.620;2023-07-20T13:30:56;1.42;;;0.50;;
75280;SDS011;63874;47.230;39.620;2023-07-20T13:33:22;0.60;;;0.10;;
75280;SDS011;63874;47.230;39.620;2023-07-20T13:35:47;1.17;;;0.30;;
75280;SDS011;63874;47.230;39.620;2023-07-20T13:38:13;1.80;;;0.40;;
75280;SDS011;63874;47.230;39.620;2023-07-20T13:40:39;1.77;;;0.60;;
75280;SDS011;63874;47.230;39.620;2023-07-20T13:43:05;1.65;;;0.65;;
75280;SDS011;63874;47.230;39.620;2023-07-20T13:45:31;1.08;;;0.10;;
75280;SDS011;63874;47.230;39.620;2023-07-20T13:47:57;1.33;;;0.43;;
75280;SDS011;63874;47.230;39.620;2023-07-20T13:50:23;0.63;;;0.32;;
75280;SDS011;63874;47.230;39.620;2023-07-20T13:52:49;2.83;;;0.68;;
75280;SDS011;63874;47.230;39.620;2023-07-20T13:55:14;1.30;;;0.40;;
75280;SDS011;63874;47.230;39.620;2023-07-20T13:57:40;0.85;;;0.45;;
75280;SDS011;63874;47.230;39.620;2023-07-20T14:00:06;0.90;;;0.60;;
75280;SDS011;63874;47.230;39.620;2023-07-20T14:02:40;2.75;;;0.40;;
75280;SDS011;63874;47.230;39.620;2023-07-20T14:05:06;1.83;;;0.73;;
75280;SDS011;63874;47.230;39.620;2023-07-20T14:07:32;1.38;;;0.40;;
75280;SDS011;63874;47.230;39.620;2023-07-20T14:09:57;0.90;;;0.55;;
75280;SDS011;63874;47.230;39.620;2023-07-20T14:12:24;0.82;;;0.45;;
75280;SDS011;63874;47.230;39.620;2023-07-20T14:14:50;0.85;;;0.52;;
75280;SDS011;63874;47.230;39.620;2023-07-20T14:17:16;1.02;;;0.10;;
75280;SDS011;63874;47.230;39.620;2023-07-20T14:19:42;0.75;;;0.40;;
75280;SDS011;63874;47.230;39.620;2023-07-20T14:22:07;1.15;;;0.40;;
75280;SDS011;63874;47.230;39.620;2023-07-20T14:24:33;1.63;;;0.80;;
75280;SDS011;63874;47.230;39.620;2023-07-20T14:26:59;1.60;;;0.60;;
75280;SDS011;63874;47.230;39.620;2023-07-20T14:29:26;0.80;;;0.50;;
75280;SDS011;63874;47.230;39.620;2023-07-20T14:31:52;0.80;;;0.50;;
75280;SDS011;63874;47.230;39.620;2023-07-20T14:34:18;1.58;;;0.30;;
75280;SDS011;63874;47.230;39.620;2023-07-20T14:36:45;0.55;;;0.30;;
75280;SDS011;63874;47.230;39.620;2023-07-20T14:39:10;1.70;;;0.95;;
75280;SDS011;63874;47.230;39.620;2023-07-20T14:41:36;0.85;;;0.40;;
75280;SDS011;63874;47.230;39.620;2023-07-20T14:44:02;1.23;;;0.30;;
75280;SDS011;63874;47.230;39.620;2023-07-20T14:46:28;1.45;;;0.50;;
75280;SDS011;63874;47.230;39.620;2023-07-20T14:48:54;1.67;;;1.15;;
75280;SDS011;63874;47.230;39.620;2023-07-20T14:51:20;2.17;;;0.75;;
75280;SDS011;63874;47.230;39.620;2023-07-20T14:53:46;0.88;;;0.10;;
75280;SDS011;63874;47.230;39.620;2023-07-20T14:56:12;1.92;;;0.32;;
75280;SDS011;63874;47.230;39.620;2023-07-20T14:58:38;0.82;;;0.60;;
75280;SDS011;63874;47.230;39.620;2023-07-20T15:01:03;1.42;;;0.45;;
75280;SDS011;63874;47.230;39.620;2023-07-20T15:03:29;1.95;;;0.60;;
75280;SDS011;63874;47.230;39.620;2023-07-20T15:05:58;1.55;;;0.73;;
75280;SDS011;63874;47.230;39.620;2023-07-20T15:08:24;1.80;;;0.43;;
75280;SDS011;63874;47.230;39.620;2023-07-20T15:10:50;2.10;;;0.50;;
75280;SDS011;63874;47.230;39.620;2023-07-20T15:13:18;2.08;;;0.38;;
75280;SDS011;63874;47.230;39.620;2023-07-20T15:15:44;2.80;;;0.52;;
75280;SDS011;63874;47.230;39.620;2023-07-20T15:18:11;0.50;;;0.30;;
75280;SDS011;63874;47.230;39.620;2023-07-20T15:20:37;2.25;;;0.90;;
75280;SDS011;63874;47.230;39.620;2023-07-20T15:23:02;1.23;;;0.50;;
75280;SDS011;63874;47.230;39.620;2023-07-20T15:25:28;1.17;;;0.55;;
75280;SDS011;63874;47.230;39.620;2023-07-20T15:27:54;1.42;;;0.60;;
75280;SDS011;63874;47.230;39.620;2023-07-20T15:30:20;1.75;;;0.17;;
75280;SDS011;63874;47.230;39.620;2023-07-20T15:32:47;1.55;;;0.57;;
75280;SDS011;63874;47.230;39.620;2023-07-20T15:35:13;1.27;;;0.82;;
75280;SDS011;63874;47.230;39.620;2023-07-20T15:37:39;1.20;;;0.10;;
75280;SDS011;63874;47.230;39.620;2023-07-20T15:40:05;1.13;;;0.52;;
75280;SDS011;63874;47.230;39.620;2023-07-20T15:42:31;0.75;;;0.10;;
75280;SDS011;63874;47.230;39.620;2023-07-20T15:44:57;0.40;;;0.10;;
75280;SDS011;63874;47.230;39.620;2023-07-20T15:47:24;1.55;;;0.50;;
75280;SDS011;63874;47.230;39.620;2023-07-20T15:49:52;0.63;;;0.22;;
75280;SDS011;63874;47.230;39.620;2023-07-20T15:52:18;0.90;;;0.38;;
75280;SDS011;63874;47.230;39.620;2023-07-20T15:54:44;2.30;;;0.95;;
75280;SDS011;63874;47.230;39.620;2023-07-20T15:57:10;1.58;;;0.60;;
75280;SDS011;63874;47.230;39.620;2023-07-20T15:59:37;1.80;;;0.63;;
75280;SDS011;63874;47.230;39.620;2023-07-20T16:02:03;1.95;;;0.80;;
75280;SDS011;63874;47.230;39.620;2023-07-20T16:04:29;1.65;;;0.55;;
75280;SDS011;63874;47.230;39.620;2023-07-20T16:06:58;2.45;;;0.52;;
75280;SDS011;63874;47.230;39.620;2023-07-20T16:09:26;3.45;;;0.60;;
75280;SDS011;63874;47.230;39.620;2023-07-20T16:11:52;2.13;;;0.70;;
75280;SDS011;63874;47.230;39.620;2023-07-20T16:14:18;1.00;;;0.52;;
75280;SDS011;63874;47.230;39.620;2023-07-20T16:16:43;3.53;;;1.23;;
75280;SDS011;63874;47.230;39.620;2023-07-20T16:19:09;1.60;;;0.70;;
75280;SDS011;63874;47.230;39.620;2023-07-20T16:21:35;1.67;;;0.43;;
75280;SDS011;63874;47.230;39.620;2023-07-20T16:24:01;1.00;;;0.10;;
75280;SDS011;63874;47.230;39.620;2023-07-20T16:26:27;1.55;;;0.35;;
75280;SDS011;63874;47.230;39.620;2023-07-20T16:28:53;3.35;;;1.17;;
75280;SDS011;63874;47.230;39.620;2023-07-20T16:31:19;5.60;;;1.17;;
75280;SDS011;63874;47.230;39.620;2023-07-20T16:33:45;4.18;;;0.95;;
75280;SDS011;63874;47.230;39.620;2023-07-20T16:36:12;2.03;;;0.60;;
75280;SDS011;63874;47.230;39.620;2023-07-20T16:38:40;2.53;;;0.68;;
75280;SDS011;63874;47.230;39.620;2023-07-20T16:41:07;2.08;;;0.20;;
75280;SDS011;63874;47.230;39.620;2023-07-20T16:43:36;2.53;;;0.60;;
75280;SDS011;63874;47.230;39.620;2023-07-20T16:46:04;1.52;;;0.20;;
75280;SDS011;63874;47.230;39.620;2023-07-20T16:48:32;5.32;;;0.85;;
75280;SDS011;63874;47.230;39.620;2023-07-20T16:50:59;3.08;;;0.40;;
75280;SDS011;63874;47.230;39.620;2023-07-20T16:53:26;3.10;;;0.98;;
75280;SDS011;63874;47.230;39.620;2023-07-20T16:55:52;0.63;;;0.10;;
75280;SDS011;63874;47.230;39.620;2023-07-20T16:58:21;2.00;;;0.68;;
75280;SDS011;63874;47.230;39.620;2023-07-20T17:00:49;0.70;;;0.40;;
75280;SDS011;63874;47.230;39.620;2023-07-20T17:03:17;3.28;;;1.13;;
75280;SDS011;63874;47.230;39.620;2023-07-20T17:08:12;1.55;;;0.10;;
75280;SDS011;63874;47.230;39.620;2023-07-20T17:10:38;1.58;;;0.38;;
75280;SDS011;63874;47.230;39.620;2023-07-20T17:13:05;2.65;;;0.47;;
75280;SDS011;63874;47.230;39.620;2023-07-20T17:15:35;5.25;;;1.80;;
75280;SDS011;63874;47.230;39.620;2023-07-20T17:18:04;3.53;;;0.80;;
75280;SDS011;63874;47.230;39.620;2023-07-20T17:20:30;5.22;;;2.25;;
75280;SDS011;63874;47.230;39.620;2023-07-20T17:22:56;4.97;;;2.28;;
75280;SDS011;63874;47.230;39.620;2023-07-20T17:25:22;4.28;;;1.05;;
75280;SDS011;63874;47.230;39.620;2023-07-20T17:27:48;2.72;;;0.50;;
75280;SDS011;63874;47.230;39.620;2023-07-20T17:30:14;2.40;;;0.68;;
75280;SDS011;63874;47.230;39.620;2023-07-20T17:32:40;1.15;;;0.52;;
75280;SDS011;63874;47.230;39.620;2023-07-20T17:35:05;3.97;;;0.80;;
75280;SDS011;63874;47.230;39.620;2023-07-20T17:37:32;0.85;;;0.20;;
75280;SDS011;63874;47.230;39.620;2023-07-20T17:40:00;1.73;;;0.30;;
75280;SDS011;63874;47.230;39.620;2023-07-20T17:42:34;4.78;;;1.70;;
75280;SDS011;63874;47.230;39.620;2023-07-20T17:45:00;5.68;;;2.38;;
75280;SDS011;63874;47.230;39.620;2023-07-20T17:47:26;3.97;;;0.45;;
75280;SDS011;63874;47.230;39.620;2023-07-20T17:49:52;2.15;;;1.00;;
75280;SDS011;63874;47.230;39.620;2023-07-20T17:52:18;1.10;;;0.40;;
75280;SDS011;63874;47.230;39.620;2023-07-20T17:54:45;2.45;;;0.30;;
75280;SDS011;63874;47.230;39.620;2023-07-20T17:57:10;1.38;;;0.22;;
75280;SDS011;63874;47.230;39.620;2023-07-20T17:59:36;3.38;;;0.63;;
75280;SDS011;63874;47.230;39.620;2023-07-20T18:02:04;4.45;;;1.27;;
75280;SDS011;63874;47.230;39.620;2023-07-20T18:04:30;5.50;;;1.77;;
75280;SDS011;63874;47.230;39.620;2023-07-20T18:06:56;3.13;;;1.23;;
75280;SDS011;63874;47.230;39.620;2023-07-20T18:09:22;3.13;;;0.63;;
75280;SDS011;63874;47.230;39.620;2023-07-20T18:11:48;10.32;;;3.53;;
75280;SDS011;63874;47.230;39.620;2023-07-20T18:14:14;4.82;;;1.40;;
75280;SDS011;63874;47.230;39.620;2023-07-20T18:16:39;4.80;;;2.03;;
75280;SDS011;63874;47.230;39.620;2023-07-20T18:19:05;4.63;;;1.20;;
75280;SDS011;63874;47.230;39.620;2023-07-20T18:21:31;7.60;;;3.88;;
75280;SDS011;63874;47.230;39.620;2023-07-20T18:23:57;3.15;;;0.50;;
75280;SDS011;63874;47.230;39.620;2023-07-20T18:26:23;4.93;;;1.48;;
75280;SDS011;63874;47.230;39.620;2023-07-20T18:28:49;4.07;;;1.10;;
75280;SDS011;63874;47.230;39.620;2023-07-20T18:31:15;6.57;;;3.50;;
75280;SDS011;63874;47.230;39.620;2023-07-20T18:33:41;7.22;;;3.00;;
75280;SDS011;63874;47.230;39.620;2023-07-20T18:36:07;3.80;;;1.10;;
75280;SDS011;63874;47.230;39.620;2023-07-20T18:38:33;2.50;;;0.50;;
75280;SDS011;63874;47.230;39.620;2023-07-20T18:40:59;4.90;;;1.90;;